Time;durP1;ratioP1;P1;durP2;ratioP2;P2;SDS_P1;SDS_P2;PMS_P1;PMS_P2;Temp;Humidity;BMP_temperature;BMP_pressure;BME280_temperature;BME280_humidity;BME280_pressure;Samples;Min_cycle;Max_cycle;Signal;HPM_P1;HPM_P2
2020/12/08 00:00:18;;;;;;;13.20;9.70;;;3.10;99.90;;;;;;5079049;28;20214;-53
2020/12/08 00:02:44;;;;;;;12.20;9.70;;;3.00;99.90;;;;;;5078068;28;20175;-55
2020/12/08 00:05:10;;;;;;;13.53;9.87;;;3.00;99.90;;;;;;5079180;28;20412;-54
2020/12/08 00:07:36;;;;;;;12.37;10.00;;;3.00;99.90;;;;;;5079885;28;20198;-57
2020/12/08 00:10:02;;;;;;;13.53;10.00;;;3.10;99.90;;;;;;5078922;28;20174;-58
2020/12/08 00:12:28;;;;;;;13.23;9.77;;;3.10;99.90;;;;;;5079099;28;20432;-53
2020/12/08 00:14:54;;;;;;;14.03;10.20;;;3.20;99.90;;;;;;5080015;28;20466;-53
2020/12/08 00:17:21;;;;;;;14.13;9.70;;;3.10;99.90;;;;;;5077262;28;20665;-59
2020/12/08 00:19:47;;;;;;;14.33;10.33;;;3.10;99.90;;;;;;5077478;28;20444;-55
2020/12/08 00:22:13;;;;;;;11.87;9.20;;;3.10;99.90;;;;;;5077610;28;20780;-54
2020/12/08 00:24:39;;;;;;;13.10;9.63;;;3.10;99.90;;;;;;5075738;28;20184;-56
2020/12/08 00:27:07;;;;;;;12.83;8.60;;;3.10;99.90;;;;;;5077236;28;20424;-54
2020/12/08 00:29:32;;;;;;;12.27;9.17;;;3.10;99.90;;;;;;5078325;28;20183;-56
2020/12/08 00:31:58;;;;;;;11.83;8.93;;;3.60;99.90;;;;;;5078172;28;20744;-53
2020/12/08 00:34:23;;;;;;;11.93;8.80;;;2.90;99.90;;;;;;5076555;28;20178;-52
2020/12/08 00:36:49;;;;;;;12.83;8.43;;;2.30;99.90;;;;;;5077100;28;20246;-53
2020/12/08 00:39:15;;;;;;;12.03;8.80;;;;;;;;;;5076782;28;20206;-54
2020/12/08 00:41:40;;;;;;;11.17;8.43;;;2.70;99.90;;;;;;5075938;28;20170;-54
2020/12/08 00:44:06;;;;;;;12.87;8.90;;;2.90;99.90;;;;;;5075962;28;20178;-54
2020/12/08 00:46:31;;;;;;;12.73;8.73;;;2.90;99.90;;;;;;5075160;28;20194;-56
2020/12/08 00:48:57;;;;;;;12.37;9.20;;;2.80;99.90;;;;;;5075971;28;20186;-55
2020/12/08 00:51:23;;;;;;;11.13;8.50;;;;;;;;;;5078223;28;20193;-57
2020/12/08 00:53:48;;;;;;;12.50;8.77;;;2.80;99.90;;;;;;5076161;28;20605;-53
2020/12/08 00:56:14;;;;;;;11.50;8.57;;;2.80;99.90;;;;;;5077831;28;20174;-55
2020/12/08 00:58:40;;;;;;;11.13;8.47;;;2.80;99.90;;;;;;5075978;28;20210;-53
2020/12/08 01:01:07;;;;;;;11.67;8.50;;;2.70;99.90;;;;;;5076893;28;20807;-53
2020/12/08 01:03:34;;;;;;;11.17;7.97;;;2.30;99.90;;;;;;5078668;28;20179;-53
2020/12/08 01:06:00;;;;;;;11.47;8.50;;;2.50;99.90;;;;;;5075229;28;20404;-53
2020/12/08 01:08:26;;;;;;;11.17;8.07;;;2.50;99.90;;;;;;5075877;28;20429;-58
2020/12/08 01:10:53;;;;;;;10.20;7.83;;;2.60;99.90;;;;;;5076757;28;20485;-55
2020/12/08 01:13:19;;;;;;;9.70;8.10;;;2.60;99.90;;;;;;5076124;28;20423;-56
2020/12/08 01:15:45;;;;;;;10.90;8.03;;;2.70;99.90;;;;;;5075960;28;20504;-53
2020/12/08 01:18:10;;;;;;;10.53;7.83;;;2.80;99.90;;;;;;5076115;28;20614;-55
2020/12/08 01:20:36;;;;;;;9.83;7.33;;;2.70;99.90;;;;;;5077782;28;20171;-53
2020/12/08 01:23:02;;;;;;;11.20;7.83;;;;;;;;;;5076349;28;20172;-59
2020/12/08 01:25:27;;;;;;;9.40;7.33;;;2.70;99.90;;;;;;5077525;28;20170;-58
2020/12/08 01:27:53;;;;;;;9.97;7.73;;;2.80;99.90;;;;;;5077286;28;20194;-53
2020/12/08 01:30:18;;;;;;;9.40;7.03;;;2.70;99.90;;;;;;5076355;28;20178;-53
2020/12/08 01:32:44;;;;;;;9.37;7.27;;;2.40;99.90;;;;;;5076508;28;20234;-53
2020/12/08 01:35:10;;;;;;;9.77;7.33;;;2.70;99.90;;;;;;5074619;28;20179;-52
2020/12/08 01:37:35;;;;;;;8.97;6.80;;;2.50;99.90;;;;;;5074563;28;20202;-54
2020/12/08 01:40:01;;;;;;;9.73;7.13;;;;;;;;;;5076749;28;20174;-53
2020/12/08 01:42:27;;;;;;;9.63;7.43;;;2.60;99.90;;;;;;5075117;28;20174;-55
2020/12/08 01:44:53;;;;;;;8.80;6.87;;;2.60;99.90;;;;;;5074986;28;20622;-55
2020/12/08 01:47:19;;;;;;;8.93;6.93;;;2.60;99.90;;;;;;5075261;28;20420;-52
2020/12/08 01:49:45;;;;;;;9.20;7.30;;;2.60;99.90;;;;;;5076642;28;20253;-55
2020/12/08 01:52:14;;;;;;;9.47;6.87;;;2.50;99.90;;;;;;5076364;28;20182;-57
2020/12/08 01:54:42;;;;;;;8.73;6.50;;;2.60;99.90;;;;;;5074180;28;20991;-55
2020/12/08 01:57:07;;;;;;;9.47;7.10;;;2.50;99.90;;;;;;5076187;28;20420;-55
2020/12/08 01:59:33;;;;;;;11.13;7.17;;;2.60;99.90;;;;;;5074772;28;20413;-56
2020/12/08 02:01:58;;;;;;;9.03;6.70;;;2.60;99.90;;;;;;5074504;28;20178;-52
2020/12/08 02:04:24;;;;;;;9.10;7.03;;;2.60;99.90;;;;;;5074862;28;20171;-55
2020/12/08 02:06:49;;;;;;;9.80;7.13;;;2.60;99.90;;;;;;5077203;28;20223;-58
2020/12/08 02:09:15;;;;;;;8.67;6.73;;;2.60;99.90;;;;;;5060358;28;20233;-55
2020/12/08 02:11:41;;;;;;;9.83;7.30;;;2.70;99.90;;;;;;5079583;28;20242;-55
2020/12/08 02:14:06;;;;;;;7.30;6.10;;;2.70;99.90;;;;;;5074121;28;20182;-53
2020/12/08 02:16:32;;;;;;;9.23;6.80;;;2.70;99.90;;;;;;5073682;28;20197;-54
2020/12/08 02:18:57;;;;;;;8.63;6.73;;;2.70;99.90;;;;;;5075552;28;20206;-53
2020/12/08 02:21:31;;;;;;;9.03;7.03;;;2.70;99.90;;;;;;5076009;28;20170;-57
2020/12/08 02:23:57;;;;;;;8.57;7.03;;;2.80;99.90;;;;;;5076453;28;20341;-58
2020/12/08 02:26:22;;;;;;;9.10;6.97;;;2.90;99.90;;;;;;5074102;28;20904;-58
2020/12/08 02:28:48;;;;;;;9.50;7.17;;;2.80;99.90;;;;;;5074633;28;20183;-55
2020/12/08 02:31:14;;;;;;;10.07;7.40;;;2.80;99.90;;;;;;5074751;28;20174;-54
2020/12/08 02:33:39;;;;;;;10.77;7.57;;;2.80;99.90;;;;;;5074935;28;20183;-53
2020/12/08 02:36:05;;;;;;;9.43;7.37;;;2.80;99.90;;;;;;5074770;28;20182;-54
2020/12/08 02:38:30;;;;;;;10.37;7.13;;;2.80;99.90;;;;;;5074052;28;20245;-54
2020/12/08 02:40:56;;;;;;;8.97;6.70;;;2.80;99.90;;;;;;5074271;28;20175;-58
2020/12/08 02:43:22;;;;;;;8.60;6.83;;;2.80;99.90;;;;;;5074673;28;20206;-52
2020/12/08 02:45:48;;;;;;;8.80;6.70;;;2.90;99.90;;;;;;5073778;28;20181;-55
2020/12/08 02:48:15;;;;;;;8.40;6.93;;;2.80;99.90;;;;;;5073674;28;20911;-53
2020/12/08 02:50:40;;;;;;;9.83;6.93;;;2.80;99.90;;;;;;5075928;28;20405;-56
2020/12/08 02:53:06;;;;;;;10.13;7.10;;;2.80;99.90;;;;;;5075080;28;20405;-52
2020/12/08 02:55:32;;;;;;;7.83;6.00;;;2.80;99.90;;;;;;5075259;28;20179;-59
2020/12/08 02:57:57;;;;;;;9.50;6.43;;;2.90;99.90;;;;;;5077635;28;20592;-57
2020/12/08 03:00:24;;;;;;;7.93;6.60;;;2.90;99.90;;;;;;5078813;28;20253;-56
2020/12/08 03:02:49;;;;;;;8.80;6.27;;;2.90;99.90;;;;;;5078909;28;20178;-55
2020/12/08 03:05:15;;;;;;;10.20;6.33;;;2.80;99.90;;;;;;5082443;28;20439;-56
2020/12/08 03:07:40;;;;;;;6.83;5.60;;;2.80;99.90;;;;;;5077331;28;20350;-55
2020/12/08 03:10:07;;;;;;;7.10;5.57;;;2.70;99.90;;;;;;5078704;28;20178;-56
2020/12/08 03:12:37;;;;;;;6.83;5.50;;;2.70;99.90;;;;;;5078605;28;20243;-59
2020/12/08 03:15:05;;;;;;;6.90;5.20;;;2.80;99.90;;;;;;5080561;28;20412;-58
2020/12/08 03:17:32;;;;;;;5.57;4.70;;;2.80;99.90;;;;;;5079024;28;20472;-54
2020/12/08 03:19:57;;;;;;;8.77;4.87;;;2.70;99.90;;;;;;5078367;28;20481;-53
2020/12/08 03:22:23;;;;;;;7.57;4.40;;;2.70;99.90;;;;;;5078845;28;20810;-52
2020/12/08 03:24:49;;;;;;;6.03;4.53;;;2.70;99.90;;;;;;5077718;28;20693;-54
2020/12/08 03:27:15;;;;;;;5.20;4.17;;;2.70;99.90;;;;;;5078484;28;20244;-52
2020/12/08 03:29:41;;;;;;;5.27;4.13;;;2.70;99.90;;;;;;5077381;28;20514;-55
2020/12/08 03:32:07;;;;;;;5.50;4.40;;;2.80;99.90;;;;;;5078885;28;20468;-58
2020/12/08 03:34:33;;;;;;;5.70;4.40;;;2.80;99.90;;;;;;5079619;28;20421;-54
2020/12/08 03:36:58;;;;;;;6.97;4.57;;;2.90;99.90;;;;;;5078048;28;20190;-53
2020/12/08 03:39:24;;;;;;;5.93;4.90;;;3.00;99.90;;;;;;5078701;28;20208;-57
2020/12/08 03:41:50;;;;;;;6.73;5.63;;;3.10;99.90;;;;;;5078278;28;20209;-54
2020/12/08 03:44:15;;;;;;;6.53;5.43;;;3.10;99.90;;;;;;5076932;28;20503;-58
2020/12/08 03:46:41;;;;;;;7.73;5.77;;;3.10;99.90;;;;;;5078742;28;20194;-53
2020/12/08 03:49:06;;;;;;;8.10;5.73;;;2.90;99.90;;;;;;5078720;28;20209;-56
2020/12/08 03:51:32;;;;;;;7.60;5.80;;;2.90;99.90;;;;;;5079103;28;20182;-54
2020/12/08 03:53:57;;;;;;;7.07;5.23;;;2.90;99.90;;;;;;5080024;28;20174;-56
2020/12/08 03:56:23;;;;;;;7.20;4.87;;;2.90;99.90;;;;;;5078330;28;20178;-57
2020/12/08 03:58:48;;;;;;;5.97;4.73;;;2.80;99.90;;;;;;5079143;28;20293;-55
2020/12/08 04:01:18;;;;;;;5.67;4.53;;;2.80;99.90;;;;;;5077536;28;20541;-53
2020/12/08 04:03:44;;;;;;;5.83;4.40;;;2.80;99.90;;;;;;5077823;28;20178;-58
2020/12/08 04:06:12;;;;;;;4.70;4.20;;;2.50;99.90;;;;;;5078168;28;20888;-52
2020/12/08 04:08:39;;;;;;;5.00;4.03;;;2.80;99.90;;;;;;5075759;28;20888;-55
2020/12/08 04:11:05;;;;;;;5.13;4.10;;;2.80;99.90;;;;;;5081170;28;20440;-57
2020/12/08 04:13:30;;;;;;;5.40;4.50;;;2.80;99.90;;;;;;5077933;28;20759;-54
2020/12/08 04:15:56;;;;;;;6.03;4.60;;;2.90;99.90;;;;;;5077461;28;20171;-53
2020/12/08 04:18:21;;;;;;;5.70;4.43;;;2.90;99.90;;;;;;5076924;28;20198;-54
2020/12/08 04:20:47;;;;;;;5.60;4.47;;;3.00;99.90;;;;;;5076990;28;20179;-58
2020/12/08 04:23:15;;;;;;;7.27;5.00;;;3.10;99.90;;;;;;5076789;28;20209;-56
2020/12/08 04:25:41;;;;;;;7.20;5.33;;;3.10;99.90;;;;;;5078556;28;20405;-59
2020/12/08 04:28:10;;;;;;;5.60;4.33;;;3.10;99.90;;;;;;5078452;28;20458;-59
2020/12/08 04:30:37;;;;;;;5.97;4.90;;;3.10;99.90;;;;;;5078234;28;20244;-54
2020/12/08 04:33:03;;;;;;;6.40;4.70;;;3.10;99.90;;;;;;5076334;28;20417;-52
2020/12/08 04:35:28;;;;;;;7.60;5.77;;;3.10;99.90;;;;;;5076110;28;20421;-52
2020/12/08 04:37:54;;;;;;;7.67;5.40;;;3.20;99.90;;;;;;5079424;28;20274;-52
2020/12/08 04:40:20;;;;;;;6.47;4.87;;;3.20;99.90;;;;;;5077185;28;20184;-58
2020/12/08 04:42:47;;;;;;;6.83;5.20;;;3.20;99.90;;;;;;5076707;28;20337;-56
2020/12/08 04:45:14;;;;;;;5.17;4.40;;;3.20;99.90;;;;;;5076582;28;20405;-53
2020/12/08 04:47:45;;;;;;;7.67;5.33;;;3.20;99.90;;;;;;5075433;28;20452;-54
2020/12/08 04:50:16;;;;;;;7.03;5.27;;;3.20;99.90;;;;;;5076004;28;20436;-56
2020/12/08 04:52:42;;;;;;;7.53;5.33;;;3.10;99.90;;;;;;5076777;28;20412;-55
2020/12/08 04:55:08;;;;;;;6.10;4.47;;;3.10;99.90;;;;;;5077062;28;20507;-58
2020/12/08 04:57:33;;;;;;;5.43;4.53;;;3.00;99.90;;;;;;5054847;28;20554;-56
2020/12/08 05:00:07;;;;;;;5.70;4.50;;;3.00;99.90;;;;;;5062604;28;20194;-58
2020/12/08 05:02:32;;;;;;;5.93;4.60;;;3.00;99.90;;;;;;5058382;28;20171;-54
2020/12/08 05:04:58;;;;;;;5.87;4.33;;;3.00;99.90;;;;;;5069947;28;20421;-53
2020/12/08 05:07:27;;;;;;;5.00;4.03;;;3.00;99.90;;;;;;5056400;28;20199;-57
2020/12/08 05:09:54;;;;;;;6.10;4.20;;;3.00;99.90;;;;;;5060296;28;20202;-54
2020/12/08 05:12:21;;;;;;;7.07;4.43;;;2.90;99.90;;;;;;5048705;28;20438;-57
2020/12/08 05:14:47;;;;;;;5.37;4.63;;;2.90;99.90;;;;;;5062001;28;20417;-56
2020/12/08 05:17:12;;;;;;;6.33;4.50;;;2.80;99.90;;;;;;5053655;28;20428;-54
2020/12/08 05:19:38;;;;;;;6.60;4.50;;;2.90;99.90;;;;;;5068675;28;20234;-56
2020/12/08 05:22:03;;;;;;;5.27;4.40;;;2.90;99.90;;;;;;5060940;28;20175;-54
2020/12/08 05:24:32;;;;;;;7.77;5.30;;;2.90;99.90;;;;;;5072788;28;20183;-55
2020/12/08 05:27:00;;;;;;;7.23;5.30;;;2.90;99.90;;;;;;5062095;28;20230;-54
2020/12/08 05:29:27;;;;;;;8.70;5.40;;;2.90;99.90;;;;;;5063664;28;20406;-57
2020/12/08 05:31:53;;;;;;;6.33;4.70;;;2.90;99.90;;;;;;5069781;28;20404;-57
2020/12/08 05:34:21;;;;;;;5.80;4.37;;;2.80;99.90;;;;;;5051220;28;20421;-59
2020/12/08 05:36:53;;;;;;;5.87;4.20;;;2.70;99.90;;;;;;5034478;28;20288;-54
2020/12/08 05:39:21;;;;;;;5.30;4.10;;;2.70;99.90;;;;;;5035819;28;20458;-54
2020/12/08 05:41:48;;;;;;;6.83;4.13;;;2.70;99.90;;;;;;5033384;28;20878;-56
2020/12/08 05:44:25;;;;;;;6.07;4.37;;;2.60;99.90;;;;;;5035585;28;20415;-56
2020/12/08 05:46:52;;;;;;;5.97;4.23;;;2.60;99.90;;;;;;5034664;28;20431;-54
2020/12/08 05:49:19;;;;;;;6.70;4.07;;;2.50;99.90;;;;;;5034610;28;20406;-54
2020/12/08 05:51:46;;;;;;;5.80;4.40;;;2.60;99.90;;;;;;5038942;28;20426;-58
2020/12/08 05:54:20;;;;;;;6.23;4.30;;;2.60;99.90;;;;;;5043466;28;20414;-52
2020/12/08 05:56:47;;;;;;;4.67;3.57;;;2.60;99.90;;;;;;5055467;28;20917;-53
2020/12/08 05:59:26;;;;;;;5.73;3.80;;;2.60;99.90;;;;;;5039133;28;20818;-55
2020/12/08 06:01:52;;;;;;;5.33;3.83;;;2.60;99.90;;;;;;5034419;28;20489;-59
2020/12/08 06:04:17;;;;;;;5.43;4.10;;;2.60;99.90;;;;;;5064967;28;20445;-57
2020/12/08 06:06:51;;;;;;;4.83;3.90;;;2.50;99.90;;;;;;5056652;28;20187;-57
2020/12/08 06:09:28;;;;;;;5.27;4.03;;;2.50;99.90;;;;;;5055717;28;20258;-56
2020/12/08 06:11:53;;;;;;;4.43;3.40;;;2.60;99.90;;;;;;5056133;28;21025;-53
2020/12/08 06:14:48;;;;;;;4.30;3.27;;;2.60;99.90;;;;;;5054203;28;20429;-55
2020/12/08 06:17:13;;;;;;;5.03;4.20;;;2.60;99.90;;;;;;4993510;28;20694;-54
2020/12/08 06:19:39;;;;;;;6.17;4.47;;;2.60;99.90;;;;;;4982959;28;20441;-52
2020/12/08 06:22:12;;;;;;;3.90;3.47;;;2.70;99.90;;;;;;4975164;28;20217;-53
2020/12/08 06:24:54;;;;;;;4.87;4.00;;;2.70;99.90;;;;;;4972844;28;20181;-56
2020/12/08 06:27:24;;;;;;;5.63;4.20;;;2.70;99.90;;;;;;4977772;28;20459;-54
2020/12/08 06:29:56;;;;;;;5.47;4.40;;;2.70;99.90;;;;;;4982740;28;20746;-53
2020/12/08 06:32:25;;;;;;;4.50;3.90;;;2.70;99.90;;;;;;4980900;28;20449;-54
2020/12/08 06:35:11;;;;;;;5.03;3.90;;;2.70;99.90;;;;;;4990368;28;20415;-55
2020/12/08 06:37:45;;;;;;;5.33;3.90;;;2.60;99.90;;;;;;4973673;28;20468;-54
2020/12/08 06:40:13;;;;;;;5.13;4.03;;;2.70;99.90;;;;;;4975563;28;20920;-53
2020/12/08 06:42:39;;;;;;;5.53;3.87;;;2.70;99.90;;;;;;4984069;28;20426;-57
2020/12/08 06:45:07;;;;;;;5.80;3.80;;;2.70;99.90;;;;;;4980264;28;20417;-54
2020/12/08 06:47:32;;;;;;;5.80;4.20;;;2.70;99.90;;;;;;4972883;28;20218;-55
2020/12/08 06:49:58;;;;;;;5.87;3.87;;;2.80;99.90;;;;;;4973547;28;20457;-53
2020/12/08 06:52:24;;;;;;;6.23;3.67;;;2.90;99.90;;;;;;4974168;28;20192;-53
2020/12/08 06:55:00;;;;;;;5.20;3.90;;;3.00;99.90;;;;;;5034346;28;20520;-57
2020/12/08 06:57:25;;;;;;;5.87;4.07;;;3.10;99.90;;;;;;5037109;28;20292;-59
2020/12/08 07:00:09;;;;;;;3.97;3.40;;;3.10;99.90;;;;;;5043838;28;20418;-53
2020/12/08 07:02:50;;;;;;;4.17;3.67;;;3.10;99.90;;;;;;5055023;28;20183;-58
2020/12/08 07:05:21;;;;;;;4.30;3.70;;;3.20;99.90;;;;;;5054937;28;20500;-54
2020/12/08 07:07:48;;;;;;;4.70;3.50;;;3.20;99.90;;;;;;5034593;28;20451;-55
2020/12/08 07:10:14;;;;;;;4.87;3.60;;;3.20;99.90;;;;;;5051518;28;20433;-57
2020/12/08 07:12:44;;;;;;;4.67;3.67;;;3.30;99.90;;;;;;5056909;28;20650;-52
2020/12/08 07:15:18;;;;;;;6.13;3.97;;;3.30;99.90;;;;;;5035553;28;20461;-58
2020/12/08 07:17:44;;;;;;;4.83;3.53;;;3.30;99.90;;;;;;5038201;28;20461;-57
2020/12/08 07:20:10;;;;;;;4.00;3.43;;;3.30;99.90;;;;;;5035760;28;20410;-56
2020/12/08 07:22:46;;;;;;;4.10;3.30;;;3.30;99.90;;;;;;5036392;28;20484;-57
2020/12/08 07:25:14;;;;;;;4.43;3.47;;;3.30;99.90;;;;;;5034051;28;20497;-53
2020/12/08 07:27:43;;;;;;;3.97;3.53;;;3.30;99.90;;;;;;5045538;28;20555;-58
2020/12/08 07:30:09;;;;;;;4.33;3.40;;;3.40;99.90;;;;;;5051925;28;20193;-55
2020/12/08 07:32:34;;;;;;;5.37;3.80;;;3.40;99.90;;;;;;5049517;28;20986;-53
2020/12/08 07:35:00;;;;;;;6.10;3.60;;;3.50;99.90;;;;;;5053044;28;20410;-52
2020/12/08 07:37:25;;;;;;;4.43;3.60;;;3.50;99.90;;;;;;5052500;28;20636;-52
2020/12/08 07:39:53;;;;;;;4.37;3.50;;;3.50;99.90;;;;;;5056235;28;20179;-54
2020/12/08 07:42:18;;;;;;;5.60;3.53;;;3.60;99.90;;;;;;5031745;28;20249;-56
2020/12/08 07:44:55;;;;;;;4.57;3.60;;;3.60;99.90;;;;;;5054010;28;20274;-60
2020/12/08 07:47:20;;;;;;;4.10;3.10;;;3.70;99.90;;;;;;5058466;28;20203;-59
2020/12/08 07:49:46;;;;;;;3.80;3.40;;;3.70;99.90;;;;;;5057567;28;20506;-52
2020/12/08 07:52:12;;;;;;;6.93;3.47;;;3.70;99.90;;;;;;5058416;28;20175;-55
2020/12/08 07:54:37;;;;;;;4.90;3.80;;;3.70;99.90;;;;;;5058222;28;20171;-55
2020/12/08 07:57:03;;;;;;;5.33;3.97;;;3.80;99.90;;;;;;5057019;28;20188;-56
2020/12/08 07:59:28;;;;;;;6.30;4.10;;;3.80;99.90;;;;;;5047868;28;20218;-59
2020/12/08 08:01:55;;;;;;;5.90;4.37;;;3.80;99.90;;;;;;5057527;28;20186;-58
2020/12/08 08:04:54;;;;;;;6.03;4.67;;;3.80;99.90;;;;;;5057719;28;20171;-54
2020/12/08 08:07:20;;;;;;;8.20;4.70;;;3.90;99.90;;;;;;5061295;28;20195;-57
2020/12/08 08:09:45;;;;;;;8.80;5.20;;;3.90;99.90;;;;;;5052767;28;20632;-56
2020/12/08 08:12:11;;;;;;;7.90;4.90;;;3.90;99.90;;;;;;5035713;28;20552;-57
2020/12/08 08:14:36;;;;;;;8.27;5.27;;;4.00;99.90;;;;;;5037067;28;20182;-56
2020/12/08 08:17:02;;;;;;;5.70;4.47;;;4.00;99.90;;;;;;5042337;28;20199;-54
2020/12/08 08:19:28;;;;;;;5.87;4.57;;;4.10;99.90;;;;;;5046122;28;20289;-60
2020/12/08 08:21:53;;;;;;;7.23;5.07;;;4.10;99.90;;;;;;5057149;28;20204;-59
2020/12/08 08:24:19;;;;;;;6.53;4.00;;;4.20;99.90;;;;;;5057186;28;20179;-62
2020/12/08 08:26:44;;;;;;;5.90;4.10;;;4.30;99.90;;;;;;5056959;28;20199;-54
2020/12/08 08:29:10;;;;;;;5.50;3.80;;;4.40;99.90;;;;;;5055472;28;20183;-55
2020/12/08 08:31:35;;;;;;;5.27;4.20;;;4.50;99.90;;;;;;5053865;28;20225;-55
2020/12/08 08:34:02;;;;;;;6.00;4.03;;;4.60;99.90;;;;;;5056882;28;20183;-57
2020/12/08 08:36:28;;;;;;;6.57;4.63;;;4.70;99.90;;;;;;5055053;28;20179;-58
2020/12/08 08:38:53;;;;;;;5.27;4.13;;;4.80;99.90;;;;;;5054859;28;20238;-60
2020/12/08 08:41:19;;;;;;;5.10;4.00;;;4.90;99.90;;;;;;5056793;28;20178;-55
2020/12/08 08:43:44;;;;;;;5.63;4.33;;;5.00;99.90;;;;;;5058111;28;20183;-60
2020/12/08 08:46:12;;;;;;;6.10;4.70;;;5.00;99.90;;;;;;5057177;28;20191;-55
2020/12/08 08:48:37;;;;;;;5.33;4.10;;;5.10;99.90;;;;;;5056631;28;20186;-54
2020/12/08 08:51:03;;;;;;;8.47;4.70;;;5.20;99.90;;;;;;5056361;28;20175;-58
2020/12/08 08:53:28;;;;;;;7.93;4.77;;;5.30;99.90;;;;;;5058207;28;20207;-52
2020/12/08 08:55:54;;;;;;;7.73;5.03;;;5.30;99.90;;;;;;5037054;28;20699;-61
2020/12/08 08:58:20;;;;;;;6.00;4.93;;;5.40;99.90;;;;;;5056046;28;20246;-61
2020/12/08 09:00:45;;;;;;;5.63;4.47;;;5.40;99.90;;;;;;5055243;28;20677;-61
2020/12/08 09:03:11;;;;;;;6.47;4.40;;;5.40;99.90;;;;;;5056344;28;20211;-53
2020/12/08 09:05:37;;;;;;;6.83;4.40;;;5.40;99.90;;;;;;5056049;28;20650;-56
2020/12/08 09:08:03;;;;;;;5.90;4.43;;;5.40;99.90;;;;;;5055426;28;20210;-52
2020/12/08 09:10:28;;;;;;;6.10;4.30;;;5.50;99.90;;;;;;5055184;28;20183;-52
2020/12/08 09:12:54;;;;;;;7.40;4.17;;;5.50;99.90;;;;;;5055369;28;20202;-61
2020/12/08 09:15:20;;;;;;;5.90;4.57;;;5.60;99.90;;;;;;5049694;28;20229;-54
2020/12/08 09:17:46;;;;;;;5.50;4.40;;;5.70;99.90;;;;;;5035204;28;20207;-55
2020/12/08 09:20:12;;;;;;;5.23;3.93;;;5.90;99.90;;;;;;5035187;28;20176;-56
2020/12/08 09:22:37;;;;;;;5.83;3.90;;;6.00;99.90;;;;;;5034914;28;20187;-52
2020/12/08 09:25:03;;;;;;;5.37;4.27;;;6.10;99.90;;;;;;5034842;28;20182;-53
2020/12/08 09:27:28;;;;;;;5.50;4.27;;;6.00;99.90;;;;;;5036090;28;20195;-60
2020/12/08 09:29:54;;;;;;;6.53;4.27;;;5.80;99.90;;;;;;5035331;28;20172;-55
2020/12/08 09:32:20;;;;;;;5.20;4.30;;;5.80;99.90;;;;;;5036434;28;20172;-54
2020/12/08 09:34:46;;;;;;;6.43;4.67;;;5.80;99.90;;;;;;5035551;28;20678;-55
2020/12/08 09:37:11;;;;;;;6.70;5.10;;;5.90;99.90;;;;;;5035030;28;20184;-55
2020/12/08 09:39:38;;;;;;;4.70;4.10;;;5.90;99.90;;;;;;5035927;28;20199;-60
2020/12/08 09:42:03;;;;;;;4.90;3.50;;;5.90;99.90;;;;;;5035303;28;20195;-53
2020/12/08 09:44:29;;;;;;;5.30;4.80;;;6.00;99.90;;;;;;5035801;28;20172;-59
2020/12/08 09:46:55;;;;;;;5.20;4.30;;;6.00;99.90;;;;;;5034874;28;20609;-53
2020/12/08 09:49:21;;;;;;;5.30;3.97;;;6.10;99.90;;;;;;5034754;28;20176;-61
2020/12/08 09:51:46;;;;;;;4.83;3.17;;;6.20;99.90;;;;;;5036224;28;20179;-58
2020/12/08 09:54:12;;;;;;;8.37;4.57;;;6.20;99.90;;;;;;5034621;28;20180;-61
2020/12/08 09:56:37;;;;;;;7.27;4.60;;;6.20;99.90;;;;;;5034918;28;20196;-57
2020/12/08 09:59:03;;;;;;;6.17;4.67;;;6.20;99.90;;;;;;5035492;28;20290;-58
2020/12/08 10:01:30;;;;;;;7.07;4.60;;;6.20;99.90;;;;;;5035780;28;20201;-53
2020/12/08 10:03:56;;;;;;;5.67;4.80;;;6.20;99.90;;;;;;5035170;28;20175;-52
2020/12/08 10:06:22;;;;;;;5.40;4.73;;;6.20;99.90;;;;;;5033985;28;20175;-54
2020/12/08 10:08:48;;;;;;;6.50;4.30;;;6.30;99.90;;;;;;5037671;28;20214;-60
2020/12/08 10:11:15;;;;;;;6.90;4.07;;;6.30;99.90;;;;;;5033981;28;20406;-58
2020/12/08 10:13:41;;;;;;;6.00;4.30;;;6.30;99.90;;;;;;5034293;28;20527;-55
2020/12/08 10:16:08;;;;;;;6.70;4.87;;;6.30;99.90;;;;;;5034319;28;20670;-60
2020/12/08 10:18:34;;;;;;;5.17;3.40;;;6.40;99.90;;;;;;5034075;28;20218;-53
2020/12/08 10:21:00;;;;;;;4.77;3.27;;;6.40;99.90;;;;;;5035377;28;20570;-57
2020/12/08 10:23:27;;;;;;;4.37;3.40;;;6.40;99.90;;;;;;5035238;28;20176;-61
2020/12/08 10:25:52;;;;;;;4.17;3.37;;;6.60;99.90;;;;;;5034671;28;20171;-58
2020/12/08 10:28:18;;;;;;;4.67;3.17;;;6.90;99.90;;;;;;5034540;28;20675;-57
2020/12/08 10:30:44;;;;;;;3.70;2.93;;;7.30;99.90;;;;;;5035239;28;20558;-53
2020/12/08 10:33:09;;;;;;;2.93;2.43;;;7.60;99.90;;;;;;5034738;28;20671;-55
2020/12/08 10:35:35;;;;;;;3.83;3.20;;;7.70;99.90;;;;;;5033287;28;20539;-61
2020/12/08 10:38:00;;;;;;;13.93;10.47;;;7.80;99.90;;;;;;5033810;28;20204;-58
2020/12/08 10:40:26;;;;;;;13.70;10.70;;;7.80;99.90;;;;;;5033584;28;20264;-60
2020/12/08 10:42:52;;;;;;;6.17;3.93;;;7.80;99.90;;;;;;5033404;28;20187;-54
2020/12/08 10:45:17;;;;;;;5.53;3.73;;;7.80;99.90;;;;;;5033464;28;20194;-55
2020/12/08 10:47:43;;;;;;;4.47;3.77;;;7.80;99.90;;;;;;5033100;28;20212;-52
2020/12/08 10:50:08;;;;;;;4.67;3.70;;;7.60;99.90;;;;;;5034709;28;20258;-54
2020/12/08 10:52:34;;;;;;;5.20;3.97;;;7.60;99.90;;;;;;5033171;28;20183;-55
2020/12/08 10:55:00;;;;;;;4.20;3.40;;;7.60;99.90;;;;;;5032262;28;20202;-57
2020/12/08 10:57:25;;;;;;;4.47;3.40;;;7.60;99.90;;;;;;5033979;28;20195;-61
2020/12/08 10:59:51;;;;;;;3.83;3.13;;;7.50;99.90;;;;;;5033750;28;20171;-52
2020/12/08 11:02:17;;;;;;;4.87;3.27;;;7.30;99.90;;;;;;5033909;28;20263;-57
2020/12/08 11:04:43;;;;;;;5.10;3.40;;;7.30;99.90;;;;;;5033967;28;20172;-55
2020/12/08 11:07:09;;;;;;;6.13;4.00;;;7.30;99.90;;;;;;5033793;28;20227;-58
2020/12/08 11:09:34;;;;;;;4.83;3.60;;;7.40;99.90;;;;;;5033649;28;20247;-60
2020/12/08 11:12:01;;;;;;;5.17;3.87;;;7.40;99.90;;;;;;5033850;28;20546;-59
2020/12/08 11:14:28;;;;;;;5.57;4.17;;;7.40;99.90;;;;;;5033992;28;20176;-60
2020/12/08 11:16:54;;;;;;;5.93;4.90;;;7.50;99.90;;;;;;5034083;28;20196;-57
2020/12/08 11:19:20;;;;;;;6.27;4.87;;;7.50;99.90;;;;;;5037794;28;20218;-53
2020/12/08 11:21:45;;;;;;;6.03;4.67;;;7.50;99.90;;;;;;5038308;28;20160;-57
2020/12/08 11:24:11;;;;;;;5.87;4.10;;;7.50;99.90;;;;;;5051401;28;20312;-60
2020/12/08 11:26:37;;;;;;;5.27;4.00;;;7.50;99.90;;;;;;5053979;28;20198;-59
2020/12/08 11:29:03;;;;;;;5.83;4.40;;;7.40;99.90;;;;;;5057519;28;20580;-60
2020/12/08 11:31:29;;;;;;;3.57;3.20;;;7.40;99.90;;;;;;5064393;28;20209;-54
2020/12/08 11:33:54;;;;;;;4.87;3.30;;;7.40;99.90;;;;;;5073782;28;20235;-57
2020/12/08 11:36:20;;;;;;;3.80;3.20;;;7.30;99.90;;;;;;5060113;28;20178;-56
2020/12/08 11:38:46;;;;;;;4.93;3.63;;;7.30;99.90;;;;;;5070233;28;20289;-61
2020/12/08 11:41:11;;;;;;;4.67;3.57;;;7.30;99.90;;;;;;5067999;28;20171;-57
2020/12/08 11:43:37;;;;;;;5.07;3.00;;;7.30;99.90;;;;;;5062645;28;20167;-52
2020/12/08 11:46:04;;;;;;;3.57;2.93;;;7.20;99.90;;;;;;5073146;28;20178;-52
2020/12/08 11:48:30;;;;;;;4.23;3.47;;;7.20;99.90;;;;;;5061795;28;20294;-56
2020/12/08 11:50:56;;;;;;;6.63;3.90;;;7.20;99.90;;;;;;5068266;28;20202;-52
2020/12/08 11:53:22;;;;;;;6.43;4.10;;;7.20;99.90;;;;;;5055022;28;20259;-53
2020/12/08 11:55:49;;;;;;;6.03;4.00;;;7.30;99.90;;;;;;5072690;28;20261;-58
2020/12/08 11:58:15;;;;;;;5.23;3.77;;;7.40;99.90;;;;;;5060844;28;20202;-52
2020/12/08 12:00:40;;;;;;;5.60;4.47;;;7.40;99.90;;;;;;5069146;28;20178;-57
2020/12/08 12:03:07;;;;;;;5.57;4.10;;;7.50;99.90;;;;;;5066849;28;20171;-60
2020/12/08 12:05:32;;;;;;;5.50;3.77;;;7.50;99.90;;;;;;5062014;28;20195;-58
2020/12/08 12:07:58;;;;;;;7.10;4.17;;;7.50;99.90;;;;;;5073331;28;20206;-55
2020/12/08 12:10:24;;;;;;;6.77;4.63;;;7.60;99.90;;;;;;5060692;28;20220;-58
2020/12/08 12:12:49;;;;;;;7.03;5.10;;;7.60;99.90;;;;;;5068315;28;20186;-53
2020/12/08 12:15:15;;;;;;;7.67;4.80;;;7.60;99.90;;;;;;5069556;28;20223;-57
2020/12/08 12:17:40;;;;;;;6.10;4.80;;;7.70;99.90;;;;;;5061221;28;20245;-59
2020/12/08 12:20:07;;;;;;;7.27;4.60;;;7.60;99.90;;;;;;5072150;28;20178;-58
2020/12/08 12:22:34;;;;;;;6.73;4.70;;;7.70;99.90;;;;;;5062029;28;20645;-53
2020/12/08 12:25:00;;;;;;;5.73;4.20;;;7.70;99.90;;;;;;5065987;28;20190;-52
2020/12/08 12:27:25;;;;;;;7.97;4.20;;;7.70;99.90;;;;;;5070147;28;20194;-59
2020/12/08 12:29:51;;;;;;;6.17;3.60;;;7.60;99.90;;;;;;5058262;28;20693;-56
2020/12/08 12:32:17;;;;;;;5.00;3.43;;;7.60;99.80;;;;;;5054394;28;20657;-56
2020/12/08 12:34:43;;;;;;;3.87;3.20;;;7.70;99.60;;;;;;5054263;28;20171;-54
2020/12/08 12:37:08;;;;;;;5.20;3.80;;;7.70;99.70;;;;;;5061460;28;20198;-56
2020/12/08 12:39:34;;;;;;;5.37;3.60;;;7.70;99.60;;;;;;5066608;28;20203;-57
2020/12/08 12:41:59;;;;;;;4.90;3.57;;;7.70;99.60;;;;;;5068174;28;20661;-55
2020/12/08 12:44:25;;;;;;;5.00;3.73;;;7.80;99.40;;;;;;5061477;28;20172;-53
2020/12/08 12:46:52;;;;;;;4.33;3.27;;;7.80;99.40;;;;;;5044965;28;20221;-52
2020/12/08 12:49:18;;;;;;;6.50;4.37;;;7.70;99.60;;;;;;5048748;28;20791;-59
2020/12/08 12:51:43;;;;;;;5.70;4.30;;;7.80;99.60;;;;;;5048274;28;20179;-60
2020/12/08 12:54:09;;;;;;;5.67;4.00;;;7.70;99.20;;;;;;5048858;28;20171;-58